sensor_id;sensor_type;location;lat;lon;timestamp;P1;durP1;ratioP1;P2;durP2;ratioP2
21837;SDS011;11081;45.946;6.140;2023-04-25T00:01:36;3.83;;;1.73;;
21837;SDS011;11081;45.946;6.140;2023-04-25T00:04:04;6.10;;;2.20;;
21837;SDS011;11081;45.946;6.140;2023-04-25T00:06:33;4.80;;;2.00;;
21837;SDS011;11081;45.946;6.140;2023-04-25T00:09:02;3.17;;;2.05;;
21837;SDS011;11081;45.946;6.140;2023-04-25T00:11:34;4.05;;;2.40;;
21837;SDS011;11081;45.946;6.140;2023-04-25T00:14:03;5.00;;;1.95;;
21837;SDS011;11081;45.946;6.140;2023-04-25T00:16:33;6.43;;;2.05;;
21837;SDS011;11081;45.946;6.140;2023-04-25T00:19:02;6.93;;;2.35;;
21837;SDS011;11081;45.946;6.140;2023-04-25T00:21:30;4.20;;;2.00;;
21837;SDS011;11081;45.946;6.140;2023-04-25T00:23:59;5.30;;;2.38;;
21837;SDS011;11081;45.946;6.140;2023-04-25T00:26:27;5.28;;;2.42;;
21837;SDS011;11081;45.946;6.140;2023-04-25T00:28:56;4.15;;;2.38;;
21837;SDS011;11081;45.946;6.140;2023-04-25T00:31:24;4.38;;;1.88;;
21837;SDS011;11081;45.946;6.140;2023-04-25T00:33:52;7.25;;;2.47;;
21837;SDS011;11081;45.946;6.140;2023-04-25T00:36:20;4.25;;;2.42;;
21837;SDS011;11081;45.946;6.140;2023-04-25T00:38:48;4.88;;;2.70;;
21837;SDS011;11081;45.946;6.140;2023-04-25T00:41:16;2.90;;;2.05;;
21837;SDS011;11081;45.946;6.140;2023-04-25T00:43:46;6.78;;;2.38;;
21837;SDS011;11081;45.946;6.140;2023-04-25T00:46:17;8.65;;;2.63;;
21837;SDS011;11081;45.946;6.140;2023-04-25T00:48:45;6.40;;;2.50;;
21837;SDS011;11081;45.946;6.140;2023-04-25T00:51:13;6.03;;;2.50;;
21837;SDS011;11081;45.946;6.140;2023-04-25T00:53:44;7.13;;;2.60;;
21837;SDS011;11081;45.946;6.140;2023-04-25T00:56:13;3.95;;;1.98;;
21837;SDS011;11081;45.946;6.140;2023-04-25T00:58:41;5.38;;;2.30;;
21837;SDS011;11081;45.946;6.140;2023-04-25T01:01:10;7.53;;;2.10;;
21837;SDS011;11081;45.946;6.140;2023-04-25T01:03:40;6.72;;;2.40;;
21837;SDS011;11081;45.946;6.140;2023-04-25T01:06:09;4.13;;;2.38;;
21837;SDS011;11081;45.946;6.140;2023-04-25T01:08:38;4.75;;;2.60;;
21837;SDS011;11081;45.946;6.140;2023-04-25T01:11:06;5.45;;;1.92;;
21837;SDS011;11081;45.946;6.140;2023-04-25T01:13:35;5.40;;;2.28;;
21837;SDS011;11081;45.946;6.140;2023-04-25T01:16:03;6.28;;;2.25;;
21837;SDS011;11081;45.946;6.140;2023-04-25T01:18:32;4.45;;;2.47;;
21837;SDS011;11081;45.946;6.140;2023-04-25T01:21:08;5.45;;;2.50;;
21837;SDS011;11081;45.946;6.140;2023-04-25T01:23:37;5.28;;;2.40;;
21837;SDS011;11081;45.946;6.140;2023-04-25T01:26:06;5.07;;;2.53;;
21837;SDS011;11081;45.946;6.140;2023-04-25T01:28:36;6.75;;;2.45;;
21837;SDS011;11081;45.946;6.140;2023-04-25T01:31:09;8.25;;;2.70;;
21837;SDS011;11081;45.946;6.140;2023-04-25T01:33:38;8.07;;;2.75;;
21837;SDS011;11081;45.946;6.140;2023-04-25T01:36:08;9.38;;;2.78;;
21837;SDS011;11081;45.946;6.140;2023-04-25T01:38:36;6.40;;;2.47;;
21837;SDS011;11081;45.946;6.140;2023-04-25T01:41:04;4.95;;;2.30;;
21837;SDS011;11081;45.946;6.140;2023-04-25T01:43:33;5.05;;;2.60;;
21837;SDS011;11081;45.946;6.140;2023-04-25T01:46:01;4.95;;;2.28;;
21837;SDS011;11081;45.946;6.140;2023-04-25T01:48:29;5.28;;;2.50;;
21837;SDS011;11081;45.946;6.140;2023-04-25T01:50:57;6.80;;;2.20;;
21837;SDS011;11081;45.946;6.140;2023-04-25T01:53:28;4.97;;;2.13;;
21837;SDS011;11081;45.946;6.140;2023-04-25T01:56:01;3.63;;;1.92;;
21837;SDS011;11081;45.946;6.140;2023-04-25T01:58:33;5.32;;;2.30;;
21837;SDS011;11081;45.946;6.140;2023-04-25T02:01:19;4.22;;;2.22;;
21837;SDS011;11081;45.946;6.140;2023-04-25T02:04:02;10.30;;;2.80;;
21837;SDS011;11081;45.946;6.140;2023-04-25T02:06:34;7.10;;;2.10;;
21837;SDS011;11081;45.946;6.140;2023-04-25T02:09:04;7.50;;;2.45;;
21837;SDS011;11081;45.946;6.140;2023-04-25T02:11:31;4.68;;;2.53;;
21837;SDS011;11081;45.946;6.140;2023-04-25T02:14:18;4.55;;;2.70;;
21837;SDS011;11081;45.946;6.140;2023-04-25T02:16:56;4.68;;;2.53;;
21837;SDS011;11081;45.946;6.140;2023-04-25T02:19:25;3.88;;;2.20;;
21837;SDS011;11081;45.946;6.140;2023-04-25T02:21:53;4.45;;;2.17;;
21837;SDS011;11081;45.946;6.140;2023-04-25T02:24:22;9.30;;;2.60;;
21837;SDS011;11081;45.946;6.140;2023-04-25T02:26:51;6.88;;;2.28;;
21837;SDS011;11081;45.946;6.140;2023-04-25T02:29:19;7.75;;;2.50;;
21837;SDS011;11081;45.946;6.140;2023-04-25T02:31:47;7.00;;;2.90;;
21837;SDS011;11081;45.946;6.140;2023-04-25T02:34:16;6.25;;;2.33;;
21837;SDS011;11081;45.946;6.140;2023-04-25T02:36:44;4.72;;;2.13;;
21837;SDS011;11081;45.946;6.140;2023-04-25T02:39:12;4.57;;;2.38;;
21837;SDS011;11081;45.946;6.140;2023-04-25T02:41:41;7.30;;;2.97;;
21837;SDS011;11081;45.946;6.140;2023-04-25T02:44:09;5.57;;;2.35;;
21837;SDS011;11081;45.946;6.140;2023-04-25T02:46:37;5.82;;;2.47;;
21837;SDS011;11081;45.946;6.140;2023-04-25T02:49:05;7.63;;;3.03;;
21837;SDS011;11081;45.946;6.140;2023-04-25T02:51:34;9.15;;;2.85;;
21837;SDS011;11081;45.946;6.140;2023-04-25T02:54:02;5.88;;;2.45;;
21837;SDS011;11081;45.946;6.140;2023-04-25T02:56:35;5.63;;;2.80;;
21837;SDS011;11081;45.946;6.140;2023-04-25T02:59:09;4.45;;;2.30;;
21837;SDS011;11081;45.946;6.140;2023-04-25T03:01:37;4.75;;;2.15;;
21837;SDS011;11081;45.946;6.140;2023-04-25T03:04:05;6.78;;;2.50;;
21837;SDS011;11081;45.946;6.140;2023-04-25T03:06:33;6.35;;;2.40;;
21837;SDS011;11081;45.946;6.140;2023-04-25T03:09:01;5.47;;;2.30;;
21837;SDS011;11081;45.946;6.140;2023-04-25T03:11:30;3.10;;;2.00;;
21837;SDS011;11081;45.946;6.140;2023-04-25T03:13:59;6.65;;;2.22;;
21837;SDS011;11081;45.946;6.140;2023-04-25T03:16:29;6.20;;;2.40;;
21837;SDS011;11081;45.946;6.140;2023-04-25T03:18:57;4.50;;;2.42;;
21837;SDS011;11081;45.946;6.140;2023-04-25T03:21:25;9.25;;;3.03;;
21837;SDS011;11081;45.946;6.140;2023-04-25T03:23:53;7.53;;;2.92;;
21837;SDS011;11081;45.946;6.140;2023-04-25T03:26:21;8.32;;;3.53;;
21837;SDS011;11081;45.946;6.140;2023-04-25T03:28:49;5.07;;;2.95;;
21837;SDS011;11081;45.946;6.140;2023-04-25T03:31:18;9.23;;;3.08;;
21837;SDS011;11081;45.946;6.140;2023-04-25T03:33:47;5.95;;;2.92;;
21837;SDS011;11081;45.946;6.140;2023-04-25T03:36:18;5.57;;;2.67;;
21837;SDS011;11081;45.946;6.140;2023-04-25T03:38:46;4.03;;;2.30;;
21837;SDS011;11081;45.946;6.140;2023-04-25T03:41:15;10.43;;;2.80;;
21837;SDS011;11081;45.946;6.140;2023-04-25T03:43:53;5.80;;;2.38;;
21837;SDS011;11081;45.946;6.140;2023-04-25T03:46:21;5.30;;;2.72;;
21837;SDS011;11081;45.946;6.140;2023-04-25T03:48:51;4.75;;;2.30;;
21837;SDS011;11081;45.946;6.140;2023-04-25T03:51:24;6.40;;;2.30;;
21837;SDS011;11081;45.946;6.140;2023-04-25T03:53:52;4.63;;;1.88;;
21837;SDS011;11081;45.946;6.140;2023-04-25T03:56:20;4.55;;;2.15;;
21837;SDS011;11081;45.946;6.140;2023-04-25T03:58:56;4.35;;;2.00;;
21837;SDS011;11081;45.946;6.140;2023-04-25T04:01:26;8.30;;;1.83;;
21837;SDS011;11081;45.946;6.140;2023-04-25T04:03:55;4.15;;;2.13;;
21837;SDS011;11081;45.946;6.140;2023-04-25T04:06:25;3.55;;;1.90;;
21837;SDS011;11081;45.946;6.140;2023-04-25T04:09:01;4.57;;;1.98;;
21837;SDS011;11081;45.946;6.140;2023-04-25T04:11:32;3.55;;;1.85;;
21837;SDS011;11081;45.946;6.140;2023-04-25T04:14:00;4.32;;;2.15;;
21837;SDS011;11081;45.946;6.140;2023-04-25T04:16:29;5.57;;;2.08;;
21837;SDS011;11081;45.946;6.140;2023-04-25T04:19:01;8.85;;;2.38;;
21837;SDS011;11081;45.946;6.140;2023-04-25T04:21:30;4.25;;;2.00;;
21837;SDS011;11081;45.946;6.140;2023-04-25T04:24:00;7.07;;;2.28;;
21837;SDS011;11081;45.946;6.140;2023-04-25T04:26:33;6.32;;;2.20;;
21837;SDS011;11081;45.946;6.140;2023-04-25T04:29:21;6.07;;;2.22;;
21837;SDS011;11081;45.946;6.140;2023-04-25T04:32:04;5.43;;;2.25;;
21837;SDS011;11081;45.946;6.140;2023-04-25T04:34:34;5.82;;;2.08;;
21837;SDS011;11081;45.946;6.140;2023-04-25T04:37:02;6.57;;;2.30;;
21837;SDS011;11081;45.946;6.140;2023-04-25T04:39:31;5.32;;;2.00;;
21837;SDS011;11081;45.946;6.140;2023-04-25T04:42:07;3.50;;;1.90;;
21837;SDS011;11081;45.946;6.140;2023-04-25T04:44:58;4.45;;;2.13;;
21837;SDS011;11081;45.946;6.140;2023-04-25T04:47:54;3.10;;;1.65;;
21837;SDS011;11081;45.946;6.140;2023-04-25T04:50:55;3.30;;;1.75;;
21837;SDS011;11081;45.946;6.140;2023-04-25T04:53:41;6.28;;;1.85;;
21837;SDS011;11081;45.946;6.140;2023-04-25T04:56:28;7.05;;;2.30;;
21837;SDS011;11081;45.946;6.140;2023-04-25T04:59:15;4.22;;;2.10;;
21837;SDS011;11081;45.946;6.140;2023-04-25T05:02:04;5.90;;;2.10;;
21837;SDS011;11081;45.946;6.140;2023-04-25T05:05:01;5.32;;;1.98;;
21837;SDS011;11081;45.946;6.140;2023-04-25T05:07:52;2.72;;;1.67;;
21837;SDS011;11081;45.946;6.140;2023-04-25T05:10:43;4.32;;;2.10;;
21837;SDS011;11081;45.946;6.140;2023-04-25T05:13:36;3.75;;;1.73;;
21837;SDS011;11081;45.946;6.140;2023-04-25T05:16:17;3.03;;;1.85;;
21837;SDS011;11081;45.946;6.140;2023-04-25T05:18:54;3.97;;;1.85;;
21837;SDS011;11081;45.946;6.140;2023-04-25T05:21:42;3.90;;;2.00;;
21837;SDS011;11081;45.946;6.140;2023-04-25T05:24:38;7.43;;;2.50;;
21837;SDS011;11081;45.946;6.140;2023-04-25T05:27:13;4.40;;;1.90;;
21837;SDS011;11081;45.946;6.140;2023-04-25T05:30:04;3.67;;;2.08;;
21837;SDS011;11081;45.946;6.140;2023-04-25T05:32:52;3.88;;;1.85;;
21837;SDS011;11081;45.946;6.140;2023-04-25T05:35:20;4.20;;;2.10;;
21837;SDS011;11081;45.946;6.140;2023-04-25T05:37:49;5.82;;;2.15;;
21837;SDS011;11081;45.946;6.140;2023-04-25T05:40:23;4.90;;;2.15;;
21837;SDS011;11081;45.946;6.140;2023-04-25T05:43:09;3.53;;;2.08;;
21837;SDS011;11081;45.946;6.140;2023-04-25T05:45:54;5.22;;;2.42;;
21837;SDS011;11081;45.946;6.140;2023-04-25T05:48:35;10.07;;;2.78;;
21837;SDS011;11081;45.946;6.140;2023-04-25T05:51:24;6.28;;;2.88;;
21837;SDS011;11081;45.946;6.140;2023-04-25T05:54:11;3.58;;;2.35;;
21837;SDS011;11081;45.946;6.140;2023-04-25T05:56:41;3.65;;;2.40;;
21837;SDS011;11081;45.946;6.140;2023-04-25T05:59:09;4.78;;;2.03;;
21837;SDS011;11081;45.946;6.140;2023-04-25T06:01:37;3.42;;;2.25;;
21837;SDS011;11081;45.946;6.140;2023-04-25T06:04:05;5.18;;;2.30;;
21837;SDS011;11081;45.946;6.140;2023-04-25T06:06:33;4.53;;;2.42;;
21837;SDS011;11081;45.946;6.140;2023-04-25T06:09:01;6.88;;;2.65;;
21837;SDS011;11081;45.946;6.140;2023-04-25T06:11:30;5.05;;;2.63;;
21837;SDS011;11081;45.946;6.140;2023-04-25T06:14:00;5.90;;;2.45;;
21837;SDS011;11081;45.946;6.140;2023-04-25T06:16:29;7.78;;;2.72;;
21837;SDS011;11081;45.946;6.140;2023-04-25T06:18:57;5.43;;;2.70;;
21837;SDS011;11081;45.946;6.140;2023-04-25T06:21:25;4.93;;;2.60;;
21837;SDS011;11081;45.946;6.140;2023-04-25T06:23:53;6.60;;;2.50;;
21837;SDS011;11081;45.946;6.140;2023-04-25T06:26:22;5.82;;;2.30;;
21837;SDS011;11081;45.946;6.140;2023-04-25T06:28:51;4.72;;;2.50;;
21837;SDS011;11081;45.946;6.140;2023-04-25T06:31:20;4.32;;;2.00;;
21837;SDS011;11081;45.946;6.140;2023-04-25T06:33:50;4.90;;;2.40;;
21837;SDS011;11081;45.946;6.140;2023-04-25T06:36:23;4.72;;;2.13;;
21837;SDS011;11081;45.946;6.140;2023-04-25T06:38:55;4.93;;;2.20;;
21837;SDS011;11081;45.946;6.140;2023-04-25T06:41:23;9.75;;;2.72;;
21837;SDS011;11081;45.946;6.140;2023-04-25T06:43:52;4.55;;;2.20;;
21837;SDS011;11081;45.946;6.140;2023-04-25T06:46:29;4.00;;;2.22;;
21837;SDS011;11081;45.946;6.140;2023-04-25T06:48:58;5.78;;;2.08;;
21837;SDS011;11081;45.946;6.140;2023-04-25T06:51:26;3.80;;;2.40;;
21837;SDS011;11081;45.946;6.140;2023-04-25T06:53:56;5.57;;;2.50;;
21837;SDS011;11081;45.946;6.140;2023-04-25T06:56:30;6.10;;;2.50;;
21837;SDS011;11081;45.946;6.140;2023-04-25T06:59:08;4.32;;;2.58;;
21837;SDS011;11081;45.946;6.140;2023-04-25T07:01:39;7.40;;;3.17;;
21837;SDS011;11081;45.946;6.140;2023-04-25T07:04:13;4.63;;;3.00;;
21837;SDS011;11081;45.946;6.140;2023-04-25T07:06:52;6.63;;;2.95;;
21837;SDS011;11081;45.946;6.140;2023-04-25T07:09:26;5.07;;;2.55;;
21837;SDS011;11081;45.946;6.140;2023-04-25T07:11:54;8.43;;;2.75;;
21837;SDS011;11081;45.946;6.140;2023-04-25T07:14:22;9.20;;;3.45;;
21837;SDS011;11081;45.946;6.140;2023-04-25T07:16:52;6.30;;;2.80;;
21837;SDS011;11081;45.946;6.140;2023-04-25T07:19:24;7.30;;;3.13;;
21837;SDS011;11081;45.946;6.140;2023-04-25T07:21:56;10.77;;;3.47;;
21837;SDS011;11081;45.946;6.140;2023-04-25T07:24:25;7.72;;;3.63;;
21837;SDS011;11081;45.946;6.140;2023-04-25T07:26:54;9.00;;;3.47;;
21837;SDS011;11081;45.946;6.140;2023-04-25T07:29:33;8.45;;;3.83;;
21837;SDS011;11081;45.946;6.140;2023-04-25T07:32:05;9.55;;;3.70;;
21837;SDS011;11081;45.946;6.140;2023-04-25T07:34:34;8.63;;;3.70;;
21837;SDS011;11081;45.946;6.140;2023-04-25T07:37:03;10.65;;;4.30;;
21837;SDS011;11081;45.946;6.140;2023-04-25T07:39:40;10.40;;;3.78;;
21837;SDS011;11081;45.946;6.140;2023-04-25T07:42:08;9.25;;;3.63;;
21837;SDS011;11081;45.946;6.140;2023-04-25T07:44:40;5.95;;;3.13;;
21837;SDS011;11081;45.946;6.140;2023-04-25T07:47:12;10.30;;;3.60;;
21837;SDS011;11081;45.946;6.140;2023-04-25T07:49:41;12.52;;;4.57;;
21837;SDS011;11081;45.946;6.140;2023-04-25T07:52:09;11.32;;;4.55;;
21837;SDS011;11081;45.946;6.140;2023-04-25T07:54:46;9.75;;;4.00;;
21837;SDS011;11081;45.946;6.140;2023-04-25T07:57:20;13.50;;;4.20;;
21837;SDS011;11081;45.946;6.140;2023-04-25T07:59:49;11.50;;;4.95;;
21837;SDS011;11081;45.946;6.140;2023-04-25T08:02:19;12.02;;;4.22;;
21837;SDS011;11081;45.946;6.140;2023-04-25T08:04:47;12.25;;;4.68;;
21837;SDS011;11081;45.946;6.140;2023-04-25T08:07:17;7.80;;;3.08;;
21837;SDS011;11081;45.946;6.140;2023-04-25T08:09:49;14.13;;;3.53;;
21837;SDS011;11081;45.946;6.140;2023-04-25T08:12:31;10.02;;;3.13;;
21837;SDS011;11081;45.946;6.140;2023-04-25T08:15:00;6.57;;;2.95;;
21837;SDS011;11081;45.946;6.140;2023-04-25T08:17:34;6.10;;;2.47;;
21837;SDS011;11081;45.946;6.140;2023-04-25T08:20:02;3.20;;;2.28;;
21837;SDS011;11081;45.946;6.140;2023-04-25T08:22:32;8.32;;;2.58;;
21837;SDS011;11081;45.946;6.140;2023-04-25T08:25:18;7.68;;;2.80;;
21837;SDS011;11081;45.946;6.140;2023-04-25T08:27:47;8.07;;;2.75;;
21837;SDS011;11081;45.946;6.140;2023-04-25T08:30:17;8.90;;;3.20;;
21837;SDS011;11081;45.946;6.140;2023-04-25T08:32:47;7.38;;;3.03;;
21837;SDS011;11081;45.946;6.140;2023-04-25T08:35:39;6.47;;;3.08;;
21837;SDS011;11081;45.946;6.140;2023-04-25T08:38:07;6.15;;;3.20;;
21837;SDS011;11081;45.946;6.140;2023-04-25T08:40:37;7.85;;;3.42;;
21837;SDS011;11081;45.946;6.140;2023-04-25T08:43:12;8.40;;;3.42;;
21837;SDS011;11081;45.946;6.140;2023-04-25T08:45:41;6.88;;;3.75;;
21837;SDS011;11081;45.946;6.140;2023-04-25T08:48:17;9.43;;;3.97;;
21837;SDS011;11081;45.946;6.140;2023-04-25T08:50:48;8.73;;;3.50;;
21837;SDS011;11081;45.946;6.140;2023-04-25T08:53:22;10.93;;;2.88;;
21837;SDS011;11081;45.946;6.140;2023-04-25T08:55:57;7.10;;;3.10;;
21837;SDS011;11081;45.946;6.140;2023-04-25T08:58:32;12.60;;;3.20;;
21837;SDS011;11081;45.946;6.140;2023-04-25T09:01:01;11.00;;;3.72;;
21837;SDS011;11081;45.946;6.140;2023-04-25T09:03:39;8.05;;;2.67;;
21837;SDS011;11081;45.946;6.140;2023-04-25T09:06:07;9.02;;;3.00;;
21837;SDS011;11081;45.946;6.140;2023-04-25T09:08:37;4.45;;;3.22;;
21837;SDS011;11081;45.946;6.140;2023-04-25T09:11:06;7.57;;;3.33;;
21837;SDS011;11081;45.946;6.140;2023-04-25T09:13:35;6.15;;;3.45;;
21837;SDS011;11081;45.946;6.140;2023-04-25T09:16:21;13.02;;;3.65;;
21837;SDS011;11081;45.946;6.140;2023-04-25T09:19:14;10.23;;;3.70;;
21837;SDS011;11081;45.946;6.140;2023-04-25T09:22:10;9.32;;;3.13;;
21837;SDS011;11081;45.946;6.140;2023-04-25T09:24:38;10.80;;;3.70;;
21837;SDS011;11081;45.946;6.140;2023-04-25T09:27:10;9.23;;;3.90;;
21837;SDS011;11081;45.946;6.140;2023-04-25T09:29:39;8.30;;;3.90;;
21837;SDS011;11081;45.946;6.140;2023-04-25T09:32:17;5.68;;;3.45;;
21837;SDS011;11081;45.946;6.140;2023-04-25T09:34:51;9.50;;;4.00;;
21837;SDS011;11081;45.946;6.140;2023-04-25T09:37:21;6.88;;;3.00;;
21837;SDS011;11081;45.946;6.140;2023-04-25T09:40:13;8.45;;;3.42;;
21837;SDS011;11081;45.946;6.140;2023-04-25T09:42:58;8.30;;;3.78;;
21837;SDS011;11081;45.946;6.140;2023-04-25T09:45:29;8.60;;;3.60;;
21837;SDS011;11081;45.946;6.140;2023-04-25T09:47:59;11.70;;;3.90;;
21837;SDS011;11081;45.946;6.140;2023-04-25T09:50:37;6.35;;;3.28;;
21837;SDS011;11081;45.946;6.140;2023-04-25T09:53:10;7.30;;;3.08;;
21837;SDS011;11081;45.946;6.140;2023-04-25T09:56:07;5.78;;;3.05;;
21837;SDS011;11081;45.946;6.140;2023-04-25T09:58:37;6.32;;;3.40;;
21837;SDS011;11081;45.946;6.140;2023-04-25T10:01:07;10.38;;;3.42;;
21837;SDS011;11081;45.946;6.140;2023-04-25T10:03:48;10.98;;;3.25;;
21837;SDS011;11081;45.946;6.140;2023-04-25T10:06:38;4.22;;;2.60;;
21837;SDS011;11081;45.946;6.140;2023-04-25T10:09:09;7.30;;;3.00;;
21837;SDS011;11081;45.946;6.140;2023-04-25T10:11:39;7.00;;;3.40;;
21837;SDS011;11081;45.946;6.140;2023-04-25T10:14:08;5.53;;;2.90;;
21837;SDS011;11081;45.946;6.140;2023-04-25T10:16:36;5.07;;;2.90;;
21837;SDS011;11081;45.946;6.140;2023-04-25T10:19:06;4.72;;;2.70;;
21837;SDS011;11081;45.946;6.140;2023-04-25T10:21:34;5.22;;;2.92;;
21837;SDS011;11081;45.946;6.140;2023-04-25T10:24:10;7.43;;;3.10;;
21837;SDS011;11081;45.946;6.140;2023-04-25T10:26:38;5.45;;;3.13;;
21837;SDS011;11081;45.946;6.140;2023-04-25T10:29:06;9.77;;;3.20;;
21837;SDS011;11081;45.946;6.140;2023-04-25T10:31:37;6.05;;;2.88;;
21837;SDS011;11081;45.946;6.140;2023-04-25T10:34:12;5.95;;;2.78;;
21837;SDS011;11081;45.946;6.140;2023-04-25T10:36:40;6.50;;;3.03;;
21837;SDS011;11081;45.946;6.140;2023-04-25T10:39:10;6.25;;;2.58;;
21837;SDS011;11081;45.946;6.140;2023-04-25T10:41:48;7.32;;;2.72;;
21837;SDS011;11081;45.946;6.140;2023-04-25T10:44:20;7.65;;;2.90;;
21837;SDS011;11081;45.946;6.140;2023-04-25T10:46:48;5.07;;;2.83;;
21837;SDS011;11081;45.946;6.140;2023-04-25T10:49:28;7.13;;;2.65;;
21837;SDS011;11081;45.946;6.140;2023-04-25T10:52:14;5.60;;;2.50;;
21837;SDS011;11081;45.946;6.140;2023-04-25T10:54:48;4.88;;;2.50;;
21837;SDS011;11081;45.946;6.140;2023-04-25T10:57:31;4.18;;;2.50;;
21837;SDS011;11081;45.946;6.140;2023-04-25T11:00:11;3.80;;;2.20;;
21837;SDS011;11081;45.946;6.140;2023-04-25T11:02:42;5.60;;;2.53;;
21837;SDS011;11081;45.946;6.140;2023-04-25T11:05:20;4.82;;;2.72;;
21837;SDS011;11081;45.946;6.140;2023-04-25T11:07:50;6.72;;;2.70;;
21837;SDS011;11081;45.946;6.140;2023-04-25T11:10:34;5.93;;;2.70;;
21837;SDS011;11081;45.946;6.140;2023-04-25T11:13:02;5.65;;;1.60;;
21837;SDS011;11081;45.946;6.140;2023-04-25T11:15:31;6.70;;;2.05;;
21837;SDS011;11081;45.946;6.140;2023-04-25T11:17:59;5.20;;;1.50;;
21837;SDS011;11081;45.946;6.140;2023-04-25T11:20:29;5.85;;;1.90;;
21837;SDS011;11081;45.946;6.140;2023-04-25T11:22:57;6.18;;;1.70;;
21837;SDS011;11081;45.946;6.140;2023-04-25T11:25:26;5.22;;;1.80;;
21837;SDS011;11081;45.946;6.140;2023-04-25T11:27:56;6.65;;;1.70;;
21837;SDS011;11081;45.946;6.140;2023-04-25T11:30:27;4.50;;;1.65;;
21837;SDS011;11081;45.946;6.140;2023-04-25T11:32:57;2.85;;;1.77;;
21837;SDS011;11081;45.946;6.140;2023-04-25T11:35:25;3.65;;;1.58;;
21837;SDS011;11081;45.946;6.140;2023-04-25T11:37:53;3.28;;;1.75;;
21837;SDS011;11081;45.946;6.140;2023-04-25T11:40:21;5.70;;;1.88;;
21837;SDS011;11081;45.946;6.140;2023-04-25T11:42:49;3.38;;;1.85;;
21837;SDS011;11081;45.946;6.140;2023-04-25T11:45:22;2.92;;;1.80;;
21837;SDS011;11081;45.946;6.140;2023-04-25T11:47:50;3.90;;;1.33;;
21837;SDS011;11081;45.946;6.140;2023-04-25T11:50:19;3.65;;;1.30;;
21837;SDS011;11081;45.946;6.140;2023-04-25T11:52:47;4.85;;;1.52;;
21837;SDS011;11081;45.946;6.140;2023-04-25T11:55:17;1.90;;;1.42;;
21837;SDS011;11081;45.946;6.140;2023-04-25T11:57:47;3.20;;;1.52;;
21837;SDS011;11081;45.946;6.140;2023-04-25T12:00:17;3.35;;;1.50;;
21837;SDS011;11081;45.946;6.140;2023-04-25T12:02:50;7.80;;;1.42;;
21837;SDS011;11081;45.946;6.140;2023-04-25T12:05:20;3.10;;;1.27;;
21837;SDS011;11081;45.946;6.140;2023-04-25T12:07:53;3.85;;;1.48;;
21837;SDS011;11081;45.946;6.140;2023-04-25T12:10:22;2.10;;;1.23;;
21837;SDS011;11081;45.946;6.140;2023-04-25T12:12:52;4.82;;;1.50;;
21837;SDS011;11081;45.946;6.140;2023-04-25T12:15:23;3.67;;;1.40;;
21837;SDS011;11081;45.946;6.140;2023-04-25T12:17:54;6.22;;;1.70;;
21837;SDS011;11081;45.946;6.140;2023-04-25T12:20:23;5.00;;;1.48;;
21837;SDS011;11081;45.946;6.140;2023-04-25T12:22:52;4.90;;;1.70;;
21837;SDS011;11081;45.946;6.140;2023-04-25T12:25:34;2.25;;;1.20;;
21837;SDS011;11081;45.946;6.140;2023-04-25T12:28:12;3.55;;;1.20;;
21837;SDS011;11081;45.946;6.140;2023-04-25T12:30:54;2.05;;;0.90;;
21837;SDS011;11081;45.946;6.140;2023-04-25T12:33:29;1.90;;;1.10;;
21837;SDS011;11081;45.946;6.140;2023-04-25T12:35:58;1.98;;;1.25;;
21837;SDS011;11081;45.946;6.140;2023-04-25T12:38:35;5.00;;;1.48;;
21837;SDS011;11081;45.946;6.140;2023-04-25T12:41:04;4.70;;;1.70;;
21837;SDS011;11081;45.946;6.140;2023-04-25T12:43:32;2.53;;;1.40;;
21837;SDS011;11081;45.946;6.140;2023-04-25T12:46:00;3.00;;;1.40;;
21837;SDS011;11081;45.946;6.140;2023-04-25T12:48:30;3.78;;;1.30;;
21837;SDS011;11081;45.946;6.140;2023-04-25T12:50:58;3.20;;;1.35;;
21837;SDS011;11081;45.946;6.140;2023-04-25T12:53:26;3.13;;;1.60;;
21837;SDS011;11081;45.946;6.140;2023-04-25T12:55:53;4.97;;;1.73;;
21837;SDS011;11081;45.946;6.140;2023-04-25T12:58:22;3.65;;;1.60;;
21837;SDS011;11081;45.946;6.140;2023-04-25T13:00:51;4.20;;;1.75;;
21837;SDS011;11081;45.946;6.140;2023-04-25T13:03:19;4.68;;;1.63;;
21837;SDS011;11081;45.946;6.140;2023-04-25T13:05:49;4.43;;;2.10;;
21837;SDS011;11081;45.946;6.140;2023-04-25T13:08:19;3.17;;;1.50;;
21837;SDS011;11081;45.946;6.140;2023-04-25T13:10:47;3.90;;;1.58;;
21837;SDS011;11081;45.946;6.140;2023-04-25T13:13:15;6.47;;;1.73;;
21837;SDS011;11081;45.946;6.140;2023-04-25T13:15:43;2.30;;;1.40;;
21837;SDS011;11081;45.946;6.140;2023-04-25T13:18:11;4.20;;;1.38;;
21837;SDS011;11081;45.946;6.140;2023-04-25T13:20:39;4.15;;;1.60;;
21837;SDS011;11081;45.946;6.140;2023-04-25T13:23:08;3.85;;;1.60;;
21837;SDS011;11081;45.946;6.140;2023-04-25T13:25:36;5.97;;;1.70;;
21837;SDS011;11081;45.946;6.140;2023-04-25T13:28:04;2.92;;;1.25;;
21837;SDS011;11081;45.946;6.140;2023-04-25T13:30:32;3.58;;;1.30;;
21837;SDS011;11081;45.946;6.140;2023-04-25T13:33:00;2.83;;;1.33;;
21837;SDS011;11081;45.946;6.140;2023-04-25T13:35:30;4.10;;;1.55;;
21837;SDS011;11081;45.946;6.140;2023-04-25T13:37:58;5.35;;;1.70;;
21837;SDS011;11081;45.946;6.140;2023-04-25T13:40:28;3.92;;;1.40;;
21837;SDS011;11081;45.946;6.140;2023-04-25T13:42:56;2.78;;;1.55;;
21837;SDS011;11081;45.946;6.140;2023-04-25T13:45:25;3.95;;;1.40;;
21837;SDS011;11081;45.946;6.140;2023-04-25T13:47:53;3.75;;;1.48;;
21837;SDS011;11081;45.946;6.140;2023-04-25T13:50:21;3.30;;;1.50;;
21837;SDS011;11081;45.946;6.140;2023-04-25T13:52:49;4.50;;;1.70;;
21837;SDS011;11081;45.946;6.140;2023-04-25T13:55:17;2.05;;;1.20;;
21837;SDS011;11081;45.946;6.140;2023-04-25T13:57:47;3.70;;;1.13;;
21837;SDS011;11081;45.946;6.140;2023-04-25T14:00:15;3.38;;;1.35;;
21837;SDS011;11081;45.946;6.140;2023-04-25T14:02:44;4.45;;;1.30;;
21837;SDS011;11081;45.946;6.140;2023-04-25T14:05:15;2.53;;;1.40;;
21837;SDS011;11081;45.946;6.140;2023-04-25T14:07:43;3.08;;;1.08;;
21837;SDS011;11081;45.946;6.140;2023-04-25T14:10:11;2.15;;;1.17;;
21837;SDS011;11081;45.946;6.140;2023-04-25T14:12:39;3.10;;;1.33;;
21837;SDS011;11081;45.946;6.140;2023-04-25T14:15:09;6.68;;;1.35;;
21837;SDS011;11081;45.946;6.140;2023-04-25T14:17:38;4.57;;;1.52;;
21837;SDS011;11081;45.946;6.140;2023-04-25T14:20:08;2.28;;;1.45;;
21837;SDS011;11081;45.946;6.140;2023-04-25T14:22:37;2.25;;;1.40;;
21837;SDS011;11081;45.946;6.140;2023-04-25T14:25:09;5.25;;;1.50;;
21837;SDS011;11081;45.946;6.140;2023-04-25T14:27:37;2.30;;;1.13;;
21837;SDS011;11081;45.946;6.140;2023-04-25T14:30:05;3.88;;;1.40;;
21837;SDS011;11081;45.946;6.140;2023-04-25T14:32:37;2.53;;;1.10;;
21837;SDS011;11081;45.946;6.140;2023-04-25T14:35:05;5.57;;;1.33;;
21837;SDS011;11081;45.946;6.140;2023-04-25T14:37:34;4.65;;;1.40;;
21837;SDS011;11081;45.946;6.140;2023-04-25T14:40:02;2.60;;;1.35;;
21837;SDS011;11081;45.946;6.140;2023-04-25T14:42:30;3.85;;;1.50;;
21837;SDS011;11081;45.946;6.140;2023-04-25T14:45:00;1.80;;;1.20;;
21837;SDS011;11081;45.946;6.140;2023-04-25T14:47:28;3.83;;;1.15;;
21837;SDS011;11081;45.946;6.140;2023-04-25T14:49:58;3.85;;;1.33;;
21837;SDS011;11081;45.946;6.140;2023-04-25T14:52:26;3.40;;;1.30;;
21837;SDS011;11081;45.946;6.140;2023-04-25T14:54:54;2.70;;;1.13;;
21837;SDS011;11081;45.946;6.140;2023-04-25T14:57:22;2.67;;;1.25;;
21837;SDS011;11081;45.946;6.140;2023-04-25T14:59:50;3.25;;;1.13;;
21837;SDS011;11081;45.946;6.140;2023-04-25T15:02:18;1.80;;;1.00;;
21837;SDS011;11081;45.946;6.140;2023-04-25T15:04:46;2.20;;;1.25;;
21837;SDS011;11081;45.946;6.140;2023-04-25T15:07:15;2.17;;;1.13;;
21837;SDS011;11081;45.946;6.140;2023-04-25T15:09:44;3.00;;;1.45;;
21837;SDS011;11081;45.946;6.140;2023-04-25T15:12:12;1.27;;;1.00;;
21837;SDS011;11081;45.946;6.140;2023-04-25T15:14:40;4.07;;;1.23;;
21837;SDS011;11081;45.946;6.140;2023-04-25T15:17:07;4.40;;;1.10;;